Hauptseite
METAR-TAF:

METAR-TAF

Flughäfen :

Flughafen Khartum

Khartum, Sudan

Breite: 15-36N, Länge: 032-33E, Höhe: 382 m

Beobachtung

Neuester Wetterbericht von vor 6 Minuten, um 06:00 UTC
Wind 6 kt aus Nord
Temperatur 24°C
Luftfeuchtigkeit 22%
Luftdruck 1010 hPa
Sichtweite 10 km oder mehr
keine Wolken unter 1500 m und keine Kumulonimbus oder Gewitterwolken

METAR: HSSS 120600Z 01006KT CAVOK 24/01 Q1010 NOSIG

Zeit: 09:06 (06:06 UTC)

Prognose

Neuester Wetterbericht von vor 1 Stunde und 6 Minuten, um 05:00 UTC
Gültige Prognose vom 12 um 06 UTC bis 13 um 12 UTC
Wind 8 kt aus Nord/Nordwest, Böen bis zu 18 kt
Sichtweite 10 km oder mehr
keine Wolken unter 1500 m und keine Kumulonimbus oder Gewitterwolken

TAF: HSSS 120500Z 1206/1312 34008G18KT CAVOK

Wetterbeobachtungen und Prognosen von mehr als 4000 Flughäfen (METAR und TAF Bericht).

Die verfügbaren Stationen werden durch gelbe und rote Markierungen auf der Karte dargestellt.

Führen Sie die Maus auf sie, um den Namen der Station zu sehen.

Darauf klicken, um die Beobachtung von Wetterbeobachtungen und Prognosen zu sehen.

Um die Karte zu ändern : klicken Sie auf den grünen Tasten mit einem schwarzen Kreuz Zum Vergrößern, auf den grünen Button mit einem Gedankenstrich zu verkleinern, oder auf die grünen Pfeile für benachbarte Karten.


METAR-TAF: